Flight Track Log - Related Links

Times and Time Zones

All times are in EST time to prevent confusion due to time zone crossing. See the TCF3494 flight status page for this flight to view local times or setup timezone preferences in your user account.


Time Position Orientation Groundspeed Altitude Reporting Facility
EST Latitude Longitude Course Direction KTS MPH feet Rate Location/Type
Tue 06:17:39 PM 40.7692 -111.9750 90° East 172 198 5,100  Level Salt Lake Center
Tue 06:18:46 PM 40.7497 -112.0411 249° West 210 242 6,800 1,670 Climbing Salt Lake Center
Tue 06:19:16 PM 40.7611 -112.0744 294° West 222 255 7,800 2,459 Climbing Salt Lake Center
Tue 06:19:47 PM 40.7967 -112.1044 327° Northwest 257 296 9,300 2,066 Climbing Salt Lake Center
Tue 06:20:00 PM 41.0167 -111.7622 90° East  Level FlightAware Approximate
Tue 06:20:17 PM 40.8267 -112.0953 13° North 274 315 9,900  Level Salt Lake Center
Tue 06:21:00 PM 41.0179 -111.6094 78° East  Level FlightAware Approximate
Tue 06:21:19 PM 40.8653 -112.0011 62° Northeast 300 345 11,300  Level Salt Lake Center
Tue 06:22:00 PM 41.0334 -111.4587 90° East  Level FlightAware Approximate
Tue 06:22:21 PM 40.9053 -111.9047 61° Northeast 299 344 13,700  Level Salt Lake Center
Tue 06:23:23 PM 40.9450 -111.7761 68° East 329 379 15,800 1,707 Climbing Salt Lake Center
Tue 06:24:24 PM 40.9761 -111.6508 72° East 368 423 17,200 1,610 Climbing Salt Lake Center
Tue 06:25:26 PM 41.0097 -111.5133 72° East 395 455 19,100 1,694 Climbing Salt Lake Center
Tue 06:26:28 PM 41.0453 -111.3706 72° East 411 473 20,700 1,589 Climbing Salt Lake Center
Tue 06:28:31 PM 41.1239 -111.0392 72° East 437 503 24,000 1,557 Climbing Salt Lake Center
Tue 06:29:33 PM 41.1617 -110.8836 72° East 452 520 25,500 1,452 Climbing Salt Lake Center
Tue 06:30:35 PM 41.1986 -110.7283 72° East 459 528 27,000 1,366 Climbing Salt Lake Center
Tue 06:31:36 PM 41.2417 -110.5453 73° East 466 536 28,300 1,122 Climbing Salt Lake Center
Tue 06:32:38 PM 41.2794 -110.3853 73° East 473 544 29,300 1,065 Climbing Salt Lake Center
Tue 06:33:40 PM 41.3231 -110.1944 73° East 482 555 30,500 1,220 Climbing Salt Lake Center
Tue 06:34:41 PM 41.3611 -110.0328 73° East 479 551 31,800 1,171 Climbing Salt Lake Center
Tue 06:35:43 PM 41.4047 -109.8433 73° East 480 552 32,900 1,016 Climbing Salt Lake Center
Tue 06:36:45 PM 41.4417 -109.6811 73° East 478 550 33,900 871 Climbing Salt Lake Center
Tue 06:37:47 PM 41.4778 -109.5189 73° East 477 549 34,700 537 Climbing Salt Lake Center
Tue 06:38:48 PM 41.5219 -109.3264 73° East 482 555 35,000 146 Climbing Salt Lake Center
Tue 06:39:50 PM 41.5608 -109.1525 73° East 497 572 35,000  Level Salt Lake Center
Tue 06:41:43 PM 41.6150 -108.7947 78° East 506 582 35,000  Level Denver Center
Tue 06:42:45 PM 41.6378 -108.6172 80° East 504 580 35,000  Level Denver Center
Tue 06:43:47 PM 41.6642 -108.4114 80° East 503 579 35,000  Level Denver Center
Tue 06:44:49 PM 41.6861 -108.2347 80° East 504 580 35,000  Level Denver Center
Tue 06:46:00 PM 41.7131 -108.0303 80° East 502 578 35,000  Level Salt Lake Center
Tue 06:47:01 PM 41.7383 -107.8244 81° East 503 579 35,000  Level Salt Lake Center
Tue 06:47:55 PM 41.7550 -107.6764 81° East 501 577 35,000  Level Denver Center
Tue 06:48:57 PM 41.7792 -107.4706 81° East 502 578 35,000  Level Denver Center
Tue 06:49:59 PM 41.8006 -107.2936 81° East 503 579 35,000  Level Denver Center
Tue 06:51:01 PM 41.8239 -107.0886 81° East 500 575 35,000  Level Denver Center
Tue 06:52:03 PM 41.8431 -106.9125 82° East 499 574 35,000  Level Denver Center
Tue 06:53:05 PM 41.8667 -106.7089 81° East 496 571 35,000  Level Denver Center
Tue 06:54:07 PM 41.8867 -106.5333 81° East 498 573 35,000  Level Denver Center
Tue 06:55:08 PM 41.9092 -106.3344 81° East 490 564 35,000  Level Denver Center
Tue 06:56:10 PM 41.9275 -106.1628 82° East 486 559 35,000  Level Denver Center
Tue 06:57:12 PM 41.9464 -105.9592 83° East 491 565 35,000  Level Denver Center
Tue 06:58:14 PM 41.9653 -105.7889 81° East 484 557 35,000  Level Denver Center
Tue 06:59:16 PM 41.9825 -105.6194 82° East 481 554 35,000  Level Denver Center
Tue 07:00:17 PM 42.0031 -105.4206 82° East 482 555 35,000  Level Denver Center
Tue 07:01:19 PM 42.0189 -105.2533 83° East 476 548 35,000  Level Denver Center
Tue 07:02:21 PM 42.0375 -105.0525 83° East 484 557 35,000  Level Denver Center
Tue 07:03:23 PM 42.0542 -104.8811 82° East 485 558 35,000  Level Denver Center
Tue 07:04:24 PM 42.0722 -104.6797 83° East 488 562 35,000  Level Denver Center
Tue 07:05:26 PM 42.0883 -104.5064 83° East 490 564 35,000  Level Denver Center
Tue 07:06:28 PM 42.1067 -104.3000 83° East 499 574 35,000  Level Denver Center
Tue 07:07:29 PM 42.1222 -104.1214 83° East 504 580 35,000  Level Denver Center
Tue 07:08:31 PM 42.1408 -103.9142 83° East 503 579 35,000  Level Denver Center
Tue 07:09:33 PM 42.1572 -103.7361 83° East 503 579 35,000  Level Denver Center
Tue 07:10:34 PM 42.1736 -103.5281 84° East 502 578 35,000  Level Denver Center
Tue 07:11:36 PM 42.1883 -103.3494 84° East 503 579 35,000  Level Denver Center
Tue 07:12:38 PM 42.2014 -103.1733 84° East 496 571 35,000  Level Denver Center
Tue 07:13:40 PM 42.2183 -102.9658 84° East 498 573 35,000  Level Denver Center
Tue 07:14:41 PM 42.2317 -102.7872 84° East 500 575 35,000  Level Denver Center
Tue 07:15:43 PM 42.2481 -102.5800 84° East 499 574 35,000  Level Denver Center
Tue 07:16:45 PM 42.2614 -102.4039 84° East 495 570 35,000  Level Denver Center
Tue 07:17:47 PM 42.2753 -102.1961 85° East 498 573 35,000 195 Level Denver Center
Tue 07:18:48 PM 42.2881 -102.0186 84° East 496 571 35,400 585 Climbing Denver Center
Tue 07:19:50 PM 42.3019 -101.8269 84° East 492 566 36,200 726 Climbing Denver Center
Tue 07:20:52 PM 42.3133 -101.6544 85° East 484 557 36,900 387 Climbing Denver Center
Tue 07:21:54 PM 42.3269 -101.4497 85° East 489 563 37,000 49 Climbing Denver Center
Tue 07:22:55 PM 42.3383 -101.2719 85° East 493 567 37,000  Level Denver Center
Tue 07:23:57 PM 42.3503 -101.0636 85° East 497 572 37,000  Level Denver Center
Tue 07:24:59 PM 42.3611 -100.8883 85° East 491 565 37,000  Level Denver Center
Tue 07:26:01 PM 42.3719 -100.6811 86° East 494 568 37,000  Level Denver Center
Tue 07:27:03 PM 42.3828 -100.5075 85° East 488 562 37,000  Level Denver Center
Tue 07:28:04 PM 42.3922 -100.3314 86° East 490 564 37,000  Level Denver Center
Tue 07:29:06 PM 42.4042 -100.1233 85° East 494 568 37,000  Level Denver Center
Tue 07:30:08 PM 42.4139 -99.9456 86° East 495 570 37,000  Level Denver Center
Tue 07:31:10 PM 42.4231 -99.7386 86° East 494 568 37,000  Level Denver Center
Tue 07:32:11 PM 42.4317 -99.5628 86° East 494 568 37,000  Level Denver Center
Tue 07:33:13 PM 42.4397 -99.3792 87° East 489 563 37,000  Level Denver Center
Tue 07:34:15 PM 42.4478 -99.2086 86° East 462 532 37,000  Level Denver Center
Tue 07:35:17 PM 42.4561 -99.0353 86° East 459 528 37,000  Level Denver Center
Tue 07:36:19 PM 42.4642 -98.8219 87° East 469 540 37,000  Level Denver Center
Tue 07:37:21 PM 42.4717 -98.6464 87° East 468 539 37,000  Level Denver Center
Tue 07:38:51 PM 42.4850 -98.3989 86° East 470 541 37,000  Level Minneapolis Center
Tue 07:39:53 PM 42.4933 -98.2217 86° East 470 541 37,000  Level Minneapolis Center
Tue 07:40:55 PM 42.5011 -98.0453 87° East 469 540 37,000  Level Minneapolis Center
Tue 07:41:57 PM 42.5106 -97.8311 87° East 473 544 37,000  Level Minneapolis Center
Tue 07:42:59 PM 42.5181 -97.6664 86° East 472 543 37,000  Level Minneapolis Center
Tue 07:44:01 PM 42.5258 -97.4886 87° East 473 544 37,000  Level Minneapolis Center
Tue 07:45:03 PM 42.5328 -97.3103 87° East 473 544 37,000  Level Minneapolis Center
Tue 07:46:05 PM 42.5397 -97.1308 87° East 476 548 37,000  Level Minneapolis Center
Tue 07:47:07 PM 42.5472 -96.9178 87° East 473 544 37,000  Level Minneapolis Center
Tue 07:48:09 PM 42.5533 -96.7406 87° East 471 542 37,000  Level Minneapolis Center
Tue 07:49:11 PM 42.5597 -96.5611 87° East 473 544 37,000  Level Minneapolis Center
Tue 07:50:13 PM 42.5653 -96.3825 88° East 473 544 37,000  Level Minneapolis Center
Tue 07:51:15 PM 42.5708 -96.2031 88° East 475 547 37,000  Level Minneapolis Center
Tue 07:52:17 PM 42.5758 -96.0233 88° East 475 547 37,000  Level Minneapolis Center
Tue 07:53:19 PM 42.5806 -95.8456 88° East 472 543 37,000  Level Minneapolis Center
Tue 07:54:20 PM 42.5853 -95.6292 88° East 475 547 37,000  Level Minneapolis Center
Tue 07:55:22 PM 42.5894 -95.4472 88° East 480 552 37,000  Level Minneapolis Center
Tue 07:56:24 PM 42.5936 -95.2694 88° East 472 543 37,000  Level Minneapolis Center
Tue 07:57:26 PM 42.5981 -95.0914 88° East 472 543 37,000  Level Minneapolis Center
Tue 07:58:28 PM 42.6006 -94.9094 89° East 477 549 37,000  Level Minneapolis Center
Tue 07:59:30 PM 42.6033 -94.7231 89° East 487 560 37,000  Level Minneapolis Center
Tue 08:00:32 PM 42.6058 -94.5325 89° East 496 571 37,000  Level Minneapolis Center
Tue 08:01:33 PM 42.6081 -94.3481 89° East 496 571 37,000  Level Minneapolis Center
Tue 08:02:35 PM 42.6053 -94.1275 91° East 492 566 37,000  Level Minneapolis Center
Tue 08:03:37 PM 42.5989 -93.9447 93° East 490 564 37,000  Level Minneapolis Center
Tue 08:04:39 PM 42.5928 -93.7592 92° East 495 570 37,000  Level Minneapolis Center
Tue 08:05:41 PM 42.5872 -93.5756 92° East 493 567 37,000  Level Minneapolis Center
Tue 08:06:43 PM 42.5811 -93.3908 93° East 493 567 37,000  Level Minneapolis Center
Tue 08:07:44 PM 42.5742 -93.2083 93° East 490 564 37,000  Level Minneapolis Center
Tue 08:08:46 PM 42.5642 -92.9883 93° East 491 565 37,000  Level Minneapolis Center
Tue 08:09:48 PM 42.5564 -92.8044 93° East 493 567 37,000  Level Minneapolis Center
Tue 08:10:50 PM 42.5492 -92.6206 93° East 493 567 37,000 -484 Level Minneapolis Center
Tue 08:11:52 PM 42.5414 -92.4381 93° East 491 565 36,000 -1,024 Descending Minneapolis Center
Tue 08:12:53 PM 42.5328 -92.2536 94° East 493 567 34,900 -1,122 Descending Minneapolis Center
Tue 08:13:55 PM 42.5236 -92.0325 93° East 496 571 33,700 -1,065 Descending Minneapolis Center
Tue 08:14:57 PM 42.5250 -91.8508 89° East 492 566 32,700 -823 Descending Minneapolis Center
Tue 08:15:59 PM 42.5256 -91.6700 90° East 491 565 32,000 -677 Descending Minneapolis Center
Tue 08:17:01 PM 42.5261 -91.4869 90° East 496 571 31,300 -927 Descending Minneapolis Center
Tue 08:18:02 PM 42.5264 -91.2614 90° East 505 581 30,100 -1,122 Descending Minneapolis Center
Tue 08:19:04 PM 42.5253 -91.0733 90° East 507 583 29,000 -1,016 Descending Minneapolis Center
Tue 08:20:06 PM 42.5256 -90.8861 90° East 505 581 28,000 -968 Descending Minneapolis Center
Tue 08:21:08 PM 42.5244 -90.7050 90° East 497 572 27,000 -1,007 Descending Minneapolis Center
Tue 08:22:23 PM 42.5236 -90.4558 90° East 476 548 25,700 -920 Descending Chicago Center
Tue 08:23:25 PM 42.5167 -90.2850 93° East 468 539 24,900 -816 Descending Chicago Center
Tue 08:24:28 PM 42.5072 -90.1139 94° East 461 531 24,000 -432 Descending Chicago Center
Tue 08:25:30 PM 42.4981 -89.9450 94° East 455 524 24,000  Level Chicago Center
Tue 08:26:32 PM 42.4869 -89.7697 95° East 457 526 24,000  Level Chicago Center
Tue 08:27:34 PM 42.4775 -89.5997 94° East 457 526 24,000 -1,258 Level Chicago Center
Tue 08:28:36 PM 42.4653 -89.3975 95° East 454 522 21,400 -2,323 Descending Chicago Center
Tue 08:29:38 PM 42.4561 -89.2383 94° East 435 501 19,200 -1,984 Descending Chicago Center
Tue 08:30:40 PM 42.4467 -89.0850 95° East 419 482 17,300 -2,129 Descending Chicago Center
Tue 08:31:42 PM 42.4372 -88.9361 95° East 406 467 14,800 -2,129 Descending Chicago Center
Tue 08:32:44 PM 42.4286 -88.7931 95° East 392 451 12,900 -1,839 Descending Chicago Center
Tue 08:33:46 PM 42.4147 -88.6278 96° East 376 433 11,000 -919 Descending Chicago Center
Tue 08:34:48 PM 42.3761 -88.5050 113° Southeast 358 412 11,000 -290 Level Chicago Center
Tue 08:35:50 PM 42.3369 -88.3811 113° Southeast 360 414 10,400 -484 Descending Chicago Center
Tue 08:36:52 PM 42.2769 -88.2836 130° Southeast 348 400 10,000 -242 Descending Chicago Center
Tue 08:37:54 PM 42.2197 -88.1858 128° Southeast 337 388 9,900 -912 Descending Chicago Center
Tue 08:38:57 PM 42.1536 -88.0975 135° Southeast 285 328 8,100 -1,104 Descending Chicago Center
Tue 08:39:59 PM 42.1011 -88.0383 140° Southeast 252 290 7,600 -484 Descending Chicago Center
Tue 08:41:01 PM 42.0917 -87.9656 100° East 203 234 7,100 -290 Descending Chicago Center
Tue 08:42:03 PM 42.0911 -87.8947 91° East 191 220 7,000 -48 Descending Chicago Center
Tue 08:43:05 PM 42.0914 -87.8208 90° East 194 223 7,000 -435 Level Chicago Center
Tue 08:44:07 PM 42.0911 -87.7500 90° East 191 220 6,100 -1,306 Descending Chicago Center
Tue 08:45:09 PM 42.0678 -87.6947 120° Southeast 174 200 4,300 -1,437 Descending Chicago Center
Tue 08:46:29 PM 42.0167 -87.7333 209° Southwest 174 200 2,700 -900 Descending Chicago TRACON
Tue 08:47:29 PM 42.0000 -87.8000 251° West 180 207 2,200 -700 Descending Chicago TRACON
Tue 08:48:29 PM 42.0000 -87.8500 270° West 156 180 1,300 -900 Descending Chicago TRACON

Login

Don't have an account? Register now (free) for customized features, flight alerts, and more!